sensor_id;sensor_type;location;lat;lon;timestamp;P1;durP1;ratioP1;P2;durP2;ratioP2
60847;SDS011;46681;47.696;9.140;2023-11-19T00:02:08;1.40;;;1.23;;
60847;SDS011;46681;47.696;9.140;2023-11-19T00:04:39;1.27;;;1.10;;
60847;SDS011;46681;47.696;9.140;2023-11-19T00:07:05;1.03;;;0.93;;
60847;SDS011;46681;47.696;9.140;2023-11-19T00:09:31;1.10;;;1.10;;
60847;SDS011;46681;47.696;9.140;2023-11-19T00:11:56;1.13;;;1.13;;
60847;SDS011;46681;47.696;9.140;2023-11-19T00:14:22;1.10;;;1.10;;
60847;SDS011;46681;47.696;9.140;2023-11-19T00:16:47;1.20;;;1.20;;
60847;SDS011;46681;47.696;9.140;2023-11-19T00:19:13;1.60;;;1.50;;
60847;SDS011;46681;47.696;9.140;2023-11-19T00:21:38;1.20;;;1.20;;
60847;SDS011;46681;47.696;9.140;2023-11-19T00:24:04;2.60;;;1.50;;
60847;SDS011;46681;47.696;9.140;2023-11-19T00:26:29;1.30;;;1.30;;
60847;SDS011;46681;47.696;9.140;2023-11-19T00:28:55;1.13;;;1.13;;
60847;SDS011;46681;47.696;9.140;2023-11-19T00:31:25;1.07;;;1.00;;
60847;SDS011;46681;47.696;9.140;2023-11-19T00:33:51;1.83;;;1.40;;
60847;SDS011;46681;47.696;9.140;2023-11-19T00:36:16;1.30;;;1.20;;
60847;SDS011;46681;47.696;9.140;2023-11-19T00:38:42;1.20;;;1.20;;
60847;SDS011;46681;47.696;9.140;2023-11-19T00:41:07;1.63;;;1.23;;
60847;SDS011;46681;47.696;9.140;2023-11-19T00:43:33;1.77;;;1.30;;
60847;SDS011;46681;47.696;9.140;2023-11-19T00:45:58;1.00;;;1.00;;
60847;SDS011;46681;47.696;9.140;2023-11-19T00:48:24;1.13;;;1.13;;
60847;SDS011;46681;47.696;9.140;2023-11-19T00:50:49;1.27;;;1.27;;
60847;SDS011;46681;47.696;9.140;2023-11-19T00:53:15;1.40;;;1.30;;
60847;SDS011;46681;47.696;9.140;2023-11-19T00:55:40;1.10;;;1.03;;
60847;SDS011;46681;47.696;9.140;2023-11-19T00:58:06;1.30;;;1.20;;
60847;SDS011;46681;47.696;9.140;2023-11-19T01:00:31;0.93;;;0.93;;
60847;SDS011;46681;47.696;9.140;2023-11-19T01:02:57;1.27;;;1.27;;
60847;SDS011;46681;47.696;9.140;2023-11-19T01:05:22;1.20;;;1.20;;
60847;SDS011;46681;47.696;9.140;2023-11-19T01:07:48;0.97;;;0.97;;
60847;SDS011;46681;47.696;9.140;2023-11-19T01:10:14;1.00;;;1.00;;
60847;SDS011;46681;47.696;9.140;2023-11-19T01:12:40;1.00;;;1.00;;
60847;SDS011;46681;47.696;9.140;2023-11-19T01:15:05;1.00;;;1.00;;
60847;SDS011;46681;47.696;9.140;2023-11-19T01:17:31;1.23;;;1.23;;
60847;SDS011;46681;47.696;9.140;2023-11-19T01:20:00;1.10;;;1.10;;
60847;SDS011;46681;47.696;9.140;2023-11-19T01:22:25;1.20;;;1.10;;
60847;SDS011;46681;47.696;9.140;2023-11-19T01:24:51;0.90;;;0.90;;
60847;SDS011;46681;47.696;9.140;2023-11-19T01:27:16;1.50;;;1.40;;
60847;SDS011;46681;47.696;9.140;2023-11-19T01:29:41;1.30;;;1.20;;
60847;SDS011;46681;47.696;9.140;2023-11-19T01:32:07;1.23;;;1.23;;
60847;SDS011;46681;47.696;9.140;2023-11-19T01:34:35;1.20;;;1.20;;
60847;SDS011;46681;47.696;9.140;2023-11-19T01:37:03;1.10;;;1.10;;
60847;SDS011;46681;47.696;9.140;2023-11-19T01:39:29;1.17;;;1.17;;
60847;SDS011;46681;47.696;9.140;2023-11-19T01:41:54;1.20;;;1.10;;
60847;SDS011;46681;47.696;9.140;2023-11-19T01:44:20;1.07;;;1.07;;
60847;SDS011;46681;47.696;9.140;2023-11-19T01:46:45;0.90;;;0.90;;
60847;SDS011;46681;47.696;9.140;2023-11-19T01:49:11;1.00;;;1.00;;
60847;SDS011;46681;47.696;9.140;2023-11-19T01:51:39;1.57;;;0.90;;
60847;SDS011;46681;47.696;9.140;2023-11-19T01:54:07;1.00;;;1.00;;
60847;SDS011;46681;47.696;9.140;2023-11-19T01:56:33;1.10;;;1.10;;
60847;SDS011;46681;47.696;9.140;2023-11-19T01:58:59;0.90;;;0.90;;
60847;SDS011;46681;47.696;9.140;2023-11-19T02:01:29;1.37;;;1.10;;
60847;SDS011;46681;47.696;9.140;2023-11-19T02:03:56;1.30;;;1.10;;
60847;SDS011;46681;47.696;9.140;2023-11-19T02:06:22;1.03;;;0.93;;
60847;SDS011;46681;47.696;9.140;2023-11-19T02:08:48;1.50;;;1.40;;
60847;SDS011;46681;47.696;9.140;2023-11-19T02:11:15;2.43;;;1.20;;
60847;SDS011;46681;47.696;9.140;2023-11-19T02:13:40;1.20;;;1.20;;
60847;SDS011;46681;47.696;9.140;2023-11-19T02:16:06;1.20;;;1.17;;
60847;SDS011;46681;47.696;9.140;2023-11-19T02:18:34;1.27;;;1.10;;
60847;SDS011;46681;47.696;9.140;2023-11-19T02:21:00;1.23;;;1.03;;
60847;SDS011;46681;47.696;9.140;2023-11-19T02:23:28;1.83;;;1.13;;
60847;SDS011;46681;47.696;9.140;2023-11-19T02:26:14;1.10;;;1.00;;
60847;SDS011;46681;47.696;9.140;2023-11-19T02:28:46;0.93;;;0.93;;
60847;SDS011;46681;47.696;9.140;2023-11-19T02:31:12;1.13;;;1.07;;
60847;SDS011;46681;47.696;9.140;2023-11-19T02:33:38;1.10;;;1.10;;
60847;SDS011;46681;47.696;9.140;2023-11-19T02:36:04;1.27;;;1.20;;
60847;SDS011;46681;47.696;9.140;2023-11-19T02:38:30;1.20;;;1.20;;
60847;SDS011;46681;47.696;9.140;2023-11-19T02:40:56;1.07;;;1.07;;
60847;SDS011;46681;47.696;9.140;2023-11-19T02:43:22;1.00;;;1.00;;
60847;SDS011;46681;47.696;9.140;2023-11-19T02:45:49;1.20;;;1.20;;
60847;SDS011;46681;47.696;9.140;2023-11-19T02:48:15;1.03;;;1.03;;
60847;SDS011;46681;47.696;9.140;2023-11-19T02:50:41;1.30;;;1.20;;
60847;SDS011;46681;47.696;9.140;2023-11-19T02:53:07;1.20;;;1.20;;
60847;SDS011;46681;47.696;9.140;2023-11-19T02:55:32;1.07;;;1.03;;
60847;SDS011;46681;47.696;9.140;2023-11-19T02:58:01;1.07;;;1.07;;
60847;SDS011;46681;47.696;9.140;2023-11-19T03:00:27;1.10;;;1.10;;
60847;SDS011;46681;47.696;9.140;2023-11-19T03:02:52;1.10;;;1.10;;
60847;SDS011;46681;47.696;9.140;2023-11-19T03:05:17;1.00;;;1.00;;
60847;SDS011;46681;47.696;9.140;2023-11-19T03:07:43;1.13;;;1.13;;
60847;SDS011;46681;47.696;9.140;2023-11-19T03:10:09;1.13;;;1.07;;
60847;SDS011;46681;47.696;9.140;2023-11-19T03:12:35;1.23;;;1.23;;
60847;SDS011;46681;47.696;9.140;2023-11-19T03:15:07;1.10;;;1.10;;
60847;SDS011;46681;47.696;9.140;2023-11-19T03:17:33;1.27;;;1.20;;
60847;SDS011;46681;47.696;9.140;2023-11-19T03:19:59;1.17;;;1.17;;
60847;SDS011;46681;47.696;9.140;2023-11-19T03:22:25;1.37;;;1.17;;
60847;SDS011;46681;47.696;9.140;2023-11-19T03:24:55;1.00;;;1.00;;
60847;SDS011;46681;47.696;9.140;2023-11-19T03:27:20;1.03;;;1.03;;
60847;SDS011;46681;47.696;9.140;2023-11-19T03:29:46;1.23;;;1.23;;
60847;SDS011;46681;47.696;9.140;2023-11-19T03:32:11;1.00;;;1.00;;
60847;SDS011;46681;47.696;9.140;2023-11-19T03:34:37;1.00;;;1.00;;
60847;SDS011;46681;47.696;9.140;2023-11-19T03:37:02;1.20;;;1.20;;
60847;SDS011;46681;47.696;9.140;2023-11-19T03:39:28;1.20;;;1.20;;
60847;SDS011;46681;47.696;9.140;2023-11-19T03:41:53;1.83;;;1.10;;
60847;SDS011;46681;47.696;9.140;2023-11-19T03:44:19;1.10;;;1.10;;
60847;SDS011;46681;47.696;9.140;2023-11-19T03:46:44;1.30;;;1.20;;
60847;SDS011;46681;47.696;9.140;2023-11-19T03:49:11;1.00;;;1.00;;
60847;SDS011;46681;47.696;9.140;2023-11-19T03:51:36;0.90;;;0.90;;
60847;SDS011;46681;47.696;9.140;2023-11-19T03:54:05;1.30;;;1.20;;
60847;SDS011;46681;47.696;9.140;2023-11-19T03:56:31;1.20;;;1.20;;
60847;SDS011;46681;47.696;9.140;2023-11-19T03:58:56;1.50;;;1.40;;
60847;SDS011;46681;47.696;9.140;2023-11-19T04:01:22;1.30;;;1.20;;
60847;SDS011;46681;47.696;9.140;2023-11-19T04:03:50;1.10;;;1.10;;
60847;SDS011;46681;47.696;9.140;2023-11-19T04:06:16;1.30;;;1.20;;
60847;SDS011;46681;47.696;9.140;2023-11-19T04:08:41;1.20;;;1.10;;
60847;SDS011;46681;47.696;9.140;2023-11-19T04:11:07;1.10;;;1.10;;
60847;SDS011;46681;47.696;9.140;2023-11-19T04:13:32;1.40;;;1.40;;
60847;SDS011;46681;47.696;9.140;2023-11-19T04:15:58;1.30;;;1.20;;
60847;SDS011;46681;47.696;9.140;2023-11-19T04:18:25;1.40;;;1.30;;
60847;SDS011;46681;47.696;9.140;2023-11-19T04:20:50;1.27;;;1.17;;
60847;SDS011;46681;47.696;9.140;2023-11-19T04:23:16;1.10;;;1.10;;
60847;SDS011;46681;47.696;9.140;2023-11-19T04:25:42;1.27;;;1.27;;
60847;SDS011;46681;47.696;9.140;2023-11-19T04:28:07;1.43;;;1.10;;
60847;SDS011;46681;47.696;9.140;2023-11-19T04:30:33;1.10;;;1.10;;
60847;SDS011;46681;47.696;9.140;2023-11-19T04:32:59;1.03;;;1.03;;
60847;SDS011;46681;47.696;9.140;2023-11-19T04:35:25;1.00;;;1.00;;
60847;SDS011;46681;47.696;9.140;2023-11-19T04:37:51;1.73;;;1.10;;
60847;SDS011;46681;47.696;9.140;2023-11-19T04:40:17;1.30;;;1.20;;
60847;SDS011;46681;47.696;9.140;2023-11-19T04:42:42;1.37;;;1.37;;
60847;SDS011;46681;47.696;9.140;2023-11-19T04:45:08;1.90;;;1.20;;
60847;SDS011;46681;47.696;9.140;2023-11-19T04:47:34;1.00;;;1.00;;
60847;SDS011;46681;47.696;9.140;2023-11-19T04:49:59;1.23;;;1.00;;
60847;SDS011;46681;47.696;9.140;2023-11-19T04:52:29;1.47;;;1.40;;
60847;SDS011;46681;47.696;9.140;2023-11-19T04:54:55;1.53;;;1.40;;
60847;SDS011;46681;47.696;9.140;2023-11-19T04:57:20;1.30;;;1.30;;
60847;SDS011;46681;47.696;9.140;2023-11-19T04:59:48;1.33;;;1.23;;
60847;SDS011;46681;47.696;9.140;2023-11-19T05:02:14;1.27;;;1.20;;
60847;SDS011;46681;47.696;9.140;2023-11-19T05:04:42;1.20;;;1.20;;
60847;SDS011;46681;47.696;9.140;2023-11-19T05:07:08;1.27;;;1.17;;
60847;SDS011;46681;47.696;9.140;2023-11-19T05:09:33;1.27;;;1.10;;
60847;SDS011;46681;47.696;9.140;2023-11-19T05:11:59;1.20;;;1.20;;
60847;SDS011;46681;47.696;9.140;2023-11-19T05:14:24;1.20;;;1.20;;
60847;SDS011;46681;47.696;9.140;2023-11-19T05:16:50;1.20;;;1.17;;
60847;SDS011;46681;47.696;9.140;2023-11-19T05:19:15;1.10;;;1.10;;
60847;SDS011;46681;47.696;9.140;2023-11-19T05:21:41;1.30;;;1.30;;
60847;SDS011;46681;47.696;9.140;2023-11-19T05:24:07;1.37;;;1.37;;
60847;SDS011;46681;47.696;9.140;2023-11-19T05:26:33;1.40;;;1.33;;
60847;SDS011;46681;47.696;9.140;2023-11-19T05:29:01;2.97;;;1.33;;
60847;SDS011;46681;47.696;9.140;2023-11-19T05:31:27;1.30;;;1.20;;
60847;SDS011;46681;47.696;9.140;2023-11-19T05:33:52;1.20;;;1.20;;
60847;SDS011;46681;47.696;9.140;2023-11-19T05:36:18;1.40;;;1.30;;
60847;SDS011;46681;47.696;9.140;2023-11-19T05:38:43;1.20;;;1.20;;
60847;SDS011;46681;47.696;9.140;2023-11-19T05:41:09;1.43;;;1.33;;
60847;SDS011;46681;47.696;9.140;2023-11-19T05:43:34;1.37;;;1.30;;
60847;SDS011;46681;47.696;9.140;2023-11-19T05:46:01;1.47;;;1.30;;
60847;SDS011;46681;47.696;9.140;2023-11-19T05:48:27;1.30;;;1.30;;
60847;SDS011;46681;47.696;9.140;2023-11-19T05:50:53;1.23;;;1.23;;
60847;SDS011;46681;47.696;9.140;2023-11-19T05:53:25;1.00;;;1.00;;
60847;SDS011;46681;47.696;9.140;2023-11-19T05:55:50;1.50;;;1.20;;
60847;SDS011;46681;47.696;9.140;2023-11-19T05:58:16;1.00;;;1.00;;
60847;SDS011;46681;47.696;9.140;2023-11-19T06:00:43;2.23;;;1.30;;
60847;SDS011;46681;47.696;9.140;2023-11-19T06:03:11;1.20;;;1.10;;
60847;SDS011;46681;47.696;9.140;2023-11-19T06:05:40;1.00;;;1.00;;
60847;SDS011;46681;47.696;9.140;2023-11-19T06:08:06;1.37;;;1.27;;
60847;SDS011;46681;47.696;9.140;2023-11-19T06:10:31;1.40;;;1.30;;
60847;SDS011;46681;47.696;9.140;2023-11-19T06:13:00;1.13;;;1.13;;
60847;SDS011;46681;47.696;9.140;2023-11-19T06:15:28;3.30;;;1.00;;
60847;SDS011;46681;47.696;9.140;2023-11-19T06:17:54;1.70;;;1.13;;
60847;SDS011;46681;47.696;9.140;2023-11-19T06:20:19;0.97;;;0.97;;
60847;SDS011;46681;47.696;9.140;2023-11-19T06:22:45;1.20;;;1.10;;
60847;SDS011;46681;47.696;9.140;2023-11-19T06:25:10;1.20;;;1.10;;
60847;SDS011;46681;47.696;9.140;2023-11-19T06:27:36;0.90;;;0.90;;
60847;SDS011;46681;47.696;9.140;2023-11-19T06:30:02;1.47;;;1.30;;
60847;SDS011;46681;47.696;9.140;2023-11-19T06:32:28;1.10;;;1.10;;
60847;SDS011;46681;47.696;9.140;2023-11-19T06:34:56;1.30;;;1.20;;
60847;SDS011;46681;47.696;9.140;2023-11-19T06:37:21;0.87;;;0.87;;
60847;SDS011;46681;47.696;9.140;2023-11-19T06:39:47;1.00;;;1.00;;
60847;SDS011;46681;47.696;9.140;2023-11-19T06:42:12;0.87;;;0.87;;
60847;SDS011;46681;47.696;9.140;2023-11-19T06:44:38;0.97;;;0.97;;
60847;SDS011;46681;47.696;9.140;2023-11-19T06:47:03;1.20;;;1.20;;
60847;SDS011;46681;47.696;9.140;2023-11-19T06:49:31;0.97;;;0.97;;
60847;SDS011;46681;47.696;9.140;2023-11-19T06:51:59;2.03;;;1.20;;
60847;SDS011;46681;47.696;9.140;2023-11-19T06:54:25;1.00;;;1.00;;
60847;SDS011;46681;47.696;9.140;2023-11-19T06:56:50;1.43;;;1.10;;
60847;SDS011;46681;47.696;9.140;2023-11-19T06:59:17;1.00;;;1.00;;
60847;SDS011;46681;47.696;9.140;2023-11-19T07:01:43;2.00;;;1.00;;
60847;SDS011;46681;47.696;9.140;2023-11-19T07:04:13;1.27;;;1.27;;
60847;SDS011;46681;47.696;9.140;2023-11-19T07:06:38;0.90;;;0.90;;
60847;SDS011;46681;47.696;9.140;2023-11-19T07:09:04;1.37;;;1.30;;
60847;SDS011;46681;47.696;9.140;2023-11-19T07:11:30;1.20;;;1.20;;
60847;SDS011;46681;47.696;9.140;2023-11-19T07:14:01;1.03;;;1.03;;
60847;SDS011;46681;47.696;9.140;2023-11-19T07:16:27;3.30;;;0.90;;
60847;SDS011;46681;47.696;9.140;2023-11-19T07:18:53;7.23;;;1.50;;
60847;SDS011;46681;47.696;9.140;2023-11-19T07:21:18;3.90;;;1.30;;
60847;SDS011;46681;47.696;9.140;2023-11-19T07:23:44;2.17;;;1.00;;
60847;SDS011;46681;47.696;9.140;2023-11-19T07:26:11;1.47;;;1.07;;
60847;SDS011;46681;47.696;9.140;2023-11-19T07:28:36;0.80;;;0.80;;
60847;SDS011;46681;47.696;9.140;2023-11-19T07:31:02;1.53;;;1.43;;
60847;SDS011;46681;47.696;9.140;2023-11-19T07:33:32;2.93;;;1.00;;
60847;SDS011;46681;47.696;9.140;2023-11-19T07:35:58;1.03;;;1.00;;
60847;SDS011;46681;47.696;9.140;2023-11-19T07:38:23;1.93;;;1.20;;
60847;SDS011;46681;47.696;9.140;2023-11-19T07:40:49;0.70;;;0.70;;
60847;SDS011;46681;47.696;9.140;2023-11-19T07:43:14;2.47;;;1.10;;
60847;SDS011;46681;47.696;9.140;2023-11-19T07:45:40;0.70;;;0.70;;
60847;SDS011;46681;47.696;9.140;2023-11-19T07:48:05;1.00;;;1.00;;
60847;SDS011;46681;47.696;9.140;2023-11-19T07:50:31;1.27;;;1.17;;
60847;SDS011;46681;47.696;9.140;2023-11-19T07:53:05;1.77;;;1.03;;
60847;SDS011;46681;47.696;9.140;2023-11-19T07:55:30;0.90;;;0.90;;
60847;SDS011;46681;47.696;9.140;2023-11-19T07:57:56;0.90;;;0.90;;
60847;SDS011;46681;47.696;9.140;2023-11-19T08:00:25;1.13;;;0.97;;
60847;SDS011;46681;47.696;9.140;2023-11-19T08:02:50;1.10;;;1.00;;
60847;SDS011;46681;47.696;9.140;2023-11-19T08:05:16;1.23;;;0.90;;
60847;SDS011;46681;47.696;9.140;2023-11-19T08:07:41;0.80;;;0.80;;
60847;SDS011;46681;47.696;9.140;2023-11-19T08:10:07;0.80;;;0.80;;
60847;SDS011;46681;47.696;9.140;2023-11-19T08:12:33;1.80;;;0.50;;
60847;SDS011;46681;47.696;9.140;2023-11-19T08:15:06;1.00;;;1.00;;
60847;SDS011;46681;47.696;9.140;2023-11-19T08:17:32;1.10;;;1.00;;
60847;SDS011;46681;47.696;9.140;2023-11-19T08:19:57;0.93;;;0.93;;
60847;SDS011;46681;47.696;9.140;2023-11-19T08:22:23;1.00;;;1.00;;
60847;SDS011;46681;47.696;9.140;2023-11-19T08:24:56;1.00;;;1.00;;
60847;SDS011;46681;47.696;9.140;2023-11-19T08:27:25;0.90;;;0.90;;
60847;SDS011;46681;47.696;9.140;2023-11-19T08:29:56;1.07;;;0.90;;
60847;SDS011;46681;47.696;9.140;2023-11-19T08:32:26;1.10;;;1.10;;
60847;SDS011;46681;47.696;9.140;2023-11-19T08:34:52;1.00;;;1.00;;
60847;SDS011;46681;47.696;9.140;2023-11-19T08:37:26;0.87;;;0.83;;
60847;SDS011;46681;47.696;9.140;2023-11-19T08:39:58;0.70;;;0.70;;
60847;SDS011;46681;47.696;9.140;2023-11-19T08:42:24;2.20;;;0.80;;
60847;SDS011;46681;47.696;9.140;2023-11-19T08:44:49;1.03;;;1.03;;
60847;SDS011;46681;47.696;9.140;2023-11-19T08:47:17;0.90;;;0.90;;
60847;SDS011;46681;47.696;9.140;2023-11-19T08:49:50;0.80;;;0.80;;
60847;SDS011;46681;47.696;9.140;2023-11-19T08:52:19;1.17;;;1.07;;
60847;SDS011;46681;47.696;9.140;2023-11-19T08:54:50;0.80;;;0.80;;
60847;SDS011;46681;47.696;9.140;2023-11-19T08:57:22;1.97;;;1.20;;
60847;SDS011;46681;47.696;9.140;2023-11-19T08:59:48;1.53;;;0.90;;
60847;SDS011;46681;47.696;9.140;2023-11-19T09:02:14;1.00;;;1.00;;
60847;SDS011;46681;47.696;9.140;2023-11-19T09:04:46;2.40;;;0.90;;
60847;SDS011;46681;47.696;9.140;2023-11-19T09:07:12;2.90;;;0.90;;
60847;SDS011;46681;47.696;9.140;2023-11-19T09:09:39;0.93;;;0.90;;
60847;SDS011;46681;47.696;9.140;2023-11-19T09:12:10;0.80;;;0.80;;
60847;SDS011;46681;47.696;9.140;2023-11-19T09:14:38;1.37;;;0.83;;
60847;SDS011;46681;47.696;9.140;2023-11-19T09:17:03;1.17;;;0.93;;
60847;SDS011;46681;47.696;9.140;2023-11-19T09:19:31;1.07;;;0.97;;
60847;SDS011;46681;47.696;9.140;2023-11-19T09:22:13;0.87;;;0.87;;
60847;SDS011;46681;47.696;9.140;2023-11-19T09:24:50;0.87;;;0.87;;
60847;SDS011;46681;47.696;9.140;2023-11-19T09:27:15;0.90;;;0.90;;
60847;SDS011;46681;47.696;9.140;2023-11-19T09:29:41;0.90;;;0.90;;
60847;SDS011;46681;47.696;9.140;2023-11-19T09:32:07;2.00;;;0.80;;
60847;SDS011;46681;47.696;9.140;2023-11-19T09:34:33;0.80;;;0.80;;
60847;SDS011;46681;47.696;9.140;2023-11-19T09:37:01;0.87;;;0.87;;
60847;SDS011;46681;47.696;9.140;2023-11-19T09:39:30;0.90;;;0.90;;
60847;SDS011;46681;47.696;9.140;2023-11-19T09:41:56;0.80;;;0.80;;
60847;SDS011;46681;47.696;9.140;2023-11-19T09:44:21;0.70;;;0.70;;
60847;SDS011;46681;47.696;9.140;2023-11-19T09:46:48;0.80;;;0.80;;
60847;SDS011;46681;47.696;9.140;2023-11-19T09:49:20;0.90;;;0.90;;
60847;SDS011;46681;47.696;9.140;2023-11-19T09:51:51;2.50;;;0.73;;
60847;SDS011;46681;47.696;9.140;2023-11-19T09:54:18;0.73;;;0.73;;
60847;SDS011;46681;47.696;9.140;2023-11-19T09:56:49;0.93;;;0.93;;
60847;SDS011;46681;47.696;9.140;2023-11-19T09:59:18;0.80;;;0.70;;
60847;SDS011;46681;47.696;9.140;2023-11-19T10:01:46;2.07;;;0.80;;
60847;SDS011;46681;47.696;9.140;2023-11-19T10:04:15;0.80;;;0.80;;
60847;SDS011;46681;47.696;9.140;2023-11-19T10:06:45;1.80;;;0.90;;
60847;SDS011;46681;47.696;9.140;2023-11-19T10:09:14;0.70;;;0.70;;
60847;SDS011;46681;47.696;9.140;2023-11-19T10:11:42;1.40;;;0.90;;
60847;SDS011;46681;47.696;9.140;2023-11-19T10:14:12;0.80;;;0.80;;
60847;SDS011;46681;47.696;9.140;2023-11-19T10:16:48;1.10;;;1.00;;
60847;SDS011;46681;47.696;9.140;2023-11-19T10:19:25;1.20;;;0.90;;
60847;SDS011;46681;47.696;9.140;2023-11-19T10:22:07;0.80;;;0.80;;
60847;SDS011;46681;47.696;9.140;2023-11-19T10:24:33;0.80;;;0.80;;
60847;SDS011;46681;47.696;9.140;2023-11-19T10:27:00;0.87;;;0.87;;
60847;SDS011;46681;47.696;9.140;2023-11-19T10:29:38;0.83;;;0.83;;
60847;SDS011;46681;47.696;9.140;2023-11-19T10:32:09;0.70;;;0.70;;
60847;SDS011;46681;47.696;9.140;2023-11-19T10:34:34;0.80;;;0.67;;
60847;SDS011;46681;47.696;9.140;2023-11-19T10:37:03;0.60;;;0.60;;
60847;SDS011;46681;47.696;9.140;2023-11-19T10:40:14;1.80;;;0.80;;
60847;SDS011;46681;47.696;9.140;2023-11-19T10:42:22;1.47;;;0.63;;
60847;SDS011;46681;47.696;9.140;2023-11-19T10:44:48;0.87;;;0.70;;
60847;SDS011;46681;47.696;9.140;2023-11-19T10:47:14;0.70;;;0.70;;
60847;SDS011;46681;47.696;9.140;2023-11-19T10:49:44;0.80;;;0.80;;
60847;SDS011;46681;47.696;9.140;2023-11-19T10:52:11;0.80;;;0.80;;
60847;SDS011;46681;47.696;9.140;2023-11-19T10:54:39;1.60;;;0.70;;
60847;SDS011;46681;47.696;9.140;2023-11-19T10:57:15;1.00;;;1.00;;
60847;SDS011;46681;47.696;9.140;2023-11-19T10:59:57;0.80;;;0.80;;
60847;SDS011;46681;47.696;9.140;2023-11-19T11:02:41;0.90;;;0.90;;
60847;SDS011;46681;47.696;9.140;2023-11-19T11:05:12;0.80;;;0.80;;
60847;SDS011;46681;47.696;9.140;2023-11-19T11:07:46;0.70;;;0.70;;
60847;SDS011;46681;47.696;9.140;2023-11-19T11:10:16;1.43;;;0.70;;
60847;SDS011;46681;47.696;9.140;2023-11-19T11:12:42;0.60;;;0.60;;
60847;SDS011;46681;47.696;9.140;2023-11-19T11:15:14;0.97;;;0.97;;
60847;SDS011;46681;47.696;9.140;2023-11-19T11:17:49;1.80;;;0.70;;
60847;SDS011;46681;47.696;9.140;2023-11-19T11:20:27;0.70;;;0.70;;
60847;SDS011;46681;47.696;9.140;2023-11-19T11:23:15;0.93;;;0.93;;
60847;SDS011;46681;47.696;9.140;2023-11-19T11:31:48;0.70;;;0.70;;
60847;SDS011;46681;47.696;9.140;2023-11-19T11:34:53;0.73;;;0.73;;
60847;SDS011;46681;47.696;9.140;2023-11-19T11:37:44;0.80;;;0.80;;
60847;SDS011;46681;47.696;9.140;2023-11-19T11:40:18;2.20;;;0.90;;
60847;SDS011;46681;47.696;9.140;2023-11-19T11:42:44;0.80;;;0.80;;
60847;SDS011;46681;47.696;9.140;2023-11-19T11:50:14;5.67;;;1.07;;
60847;SDS011;46681;47.696;9.140;2023-11-19T11:58:13;3.27;;;0.70;;
60847;SDS011;46681;47.696;9.140;2023-11-19T12:00:56;4.33;;;0.77;;
60847;SDS011;46681;47.696;9.140;2023-11-19T12:03:26;1.13;;;1.00;;
60847;SDS011;46681;47.696;9.140;2023-11-19T12:05:56;0.80;;;0.80;;
60847;SDS011;46681;47.696;9.140;2023-11-19T12:08:28;0.70;;;0.70;;
60847;SDS011;46681;47.696;9.140;2023-11-19T12:11:08;0.80;;;0.80;;
60847;SDS011;46681;47.696;9.140;2023-11-19T12:13:54;0.80;;;0.80;;
60847;SDS011;46681;47.696;9.140;2023-11-19T12:16:27;0.70;;;0.70;;
60847;SDS011;46681;47.696;9.140;2023-11-19T12:21:43;0.93;;;0.70;;
60847;SDS011;46681;47.696;9.140;2023-11-19T12:24:19;0.60;;;0.60;;
60847;SDS011;46681;47.696;9.140;2023-11-19T12:26:49;1.87;;;0.90;;
60847;SDS011;46681;47.696;9.140;2023-11-19T12:29:18;0.80;;;0.80;;
60847;SDS011;46681;47.696;9.140;2023-11-19T12:31:44;0.80;;;0.80;;
60847;SDS011;46681;47.696;9.140;2023-11-19T12:34:18;0.70;;;0.70;;
60847;SDS011;46681;47.696;9.140;2023-11-19T12:36:45;2.20;;;0.90;;
60847;SDS011;46681;47.696;9.140;2023-11-19T12:39:10;0.70;;;0.70;;
60847;SDS011;46681;47.696;9.140;2023-11-19T12:41:51;1.17;;;0.93;;
60847;SDS011;46681;47.696;9.140;2023-11-19T12:44:26;0.93;;;0.70;;
60847;SDS011;46681;47.696;9.140;2023-11-19T12:49:32;0.60;;;0.60;;
60847;SDS011;46681;47.696;9.140;2023-11-19T12:51:58;0.80;;;0.80;;
60847;SDS011;46681;47.696;9.140;2023-11-19T12:54:36;0.93;;;0.87;;
60847;SDS011;46681;47.696;9.140;2023-11-19T12:57:02;0.70;;;0.70;;
60847;SDS011;46681;47.696;9.140;2023-11-19T12:59:29;0.93;;;0.90;;
60847;SDS011;46681;47.696;9.140;2023-11-19T13:01:55;0.73;;;0.73;;
60847;SDS011;46681;47.696;9.140;2023-11-19T13:04:28;0.70;;;0.67;;
60847;SDS011;46681;47.696;9.140;2023-11-19T13:07:02;0.80;;;0.80;;
60847;SDS011;46681;47.696;9.140;2023-11-19T13:09:30;0.70;;;0.70;;
60847;SDS011;46681;47.696;9.140;2023-11-19T13:11:56;0.63;;;0.63;;
60847;SDS011;46681;47.696;9.140;2023-11-19T13:14:35;1.10;;;1.10;;
60847;SDS011;46681;47.696;9.140;2023-11-19T13:17:01;0.80;;;0.80;;
60847;SDS011;46681;47.696;9.140;2023-11-19T13:19:42;0.70;;;0.70;;
60847;SDS011;46681;47.696;9.140;2023-11-19T13:22:08;1.80;;;0.70;;
60847;SDS011;46681;47.696;9.140;2023-11-19T13:24:35;0.70;;;0.70;;
60847;SDS011;46681;47.696;9.140;2023-11-19T13:27:04;0.50;;;0.50;;
60847;SDS011;46681;47.696;9.140;2023-11-19T13:29:32;0.63;;;0.63;;
60847;SDS011;46681;47.696;9.140;2023-11-19T13:35:03;0.80;;;0.80;;
60847;SDS011;46681;47.696;9.140;2023-11-19T13:37:32;0.77;;;0.77;;
60847;SDS011;46681;47.696;9.140;2023-11-19T13:40:02;1.13;;;1.03;;
60847;SDS011;46681;47.696;9.140;2023-11-19T13:42:33;0.80;;;0.80;;
60847;SDS011;46681;47.696;9.140;2023-11-19T13:44:59;1.13;;;1.10;;
60847;SDS011;46681;47.696;9.140;2023-11-19T13:47:35;1.03;;;1.00;;
60847;SDS011;46681;47.696;9.140;2023-11-19T13:50:00;0.70;;;0.70;;
60847;SDS011;46681;47.696;9.140;2023-11-19T13:53:02;0.60;;;0.60;;
60847;SDS011;46681;47.696;9.140;2023-11-19T13:55:36;0.77;;;0.77;;
60847;SDS011;46681;47.696;9.140;2023-11-19T13:58:04;0.67;;;0.67;;
60847;SDS011;46681;47.696;9.140;2023-11-19T14:00:29;1.23;;;0.70;;
60847;SDS011;46681;47.696;9.140;2023-11-19T14:03:02;0.80;;;0.80;;
60847;SDS011;46681;47.696;9.140;2023-11-19T14:05:30;1.73;;;0.80;;
60847;SDS011;46681;47.696;9.140;2023-11-19T14:08:04;1.33;;;0.80;;
60847;SDS011;46681;47.696;9.140;2023-11-19T14:10:34;1.63;;;0.80;;
60847;SDS011;46681;47.696;9.140;2023-11-19T14:13:02;0.73;;;0.73;;
60847;SDS011;46681;47.696;9.140;2023-11-19T14:15:29;0.73;;;0.60;;
60847;SDS011;46681;47.696;9.140;2023-11-19T14:17:58;0.70;;;0.70;;
60847;SDS011;46681;47.696;9.140;2023-11-19T14:20:23;0.67;;;0.67;;
60847;SDS011;46681;47.696;9.140;2023-11-19T14:23:02;0.73;;;0.73;;
60847;SDS011;46681;47.696;9.140;2023-11-19T14:25:31;0.60;;;0.60;;
60847;SDS011;46681;47.696;9.140;2023-11-19T14:27:57;0.70;;;0.70;;
60847;SDS011;46681;47.696;9.140;2023-11-19T14:30:32;0.80;;;0.80;;
60847;SDS011;46681;47.696;9.140;2023-11-19T14:33:03;0.60;;;0.60;;
60847;SDS011;46681;47.696;9.140;2023-11-19T14:35:36;0.60;;;0.60;;
60847;SDS011;46681;47.696;9.140;2023-11-19T14:38:14;0.73;;;0.73;;
60847;SDS011;46681;47.696;9.140;2023-11-19T14:40:44;0.87;;;0.80;;
60847;SDS011;46681;47.696;9.140;2023-11-19T14:43:09;0.70;;;0.70;;
60847;SDS011;46681;47.696;9.140;2023-11-19T14:45:35;0.80;;;0.70;;
60847;SDS011;46681;47.696;9.140;2023-11-19T14:48:10;1.07;;;0.97;;
60847;SDS011;46681;47.696;9.140;2023-11-19T14:50:36;0.60;;;0.60;;
60847;SDS011;46681;47.696;9.140;2023-11-19T14:53:02;0.93;;;0.87;;
60847;SDS011;46681;47.696;9.140;2023-11-19T14:55:33;3.43;;;0.77;;
60847;SDS011;46681;47.696;9.140;2023-11-19T14:58:06;2.00;;;0.70;;
60847;SDS011;46681;47.696;9.140;2023-11-19T15:00:32;1.10;;;1.00;;
60847;SDS011;46681;47.696;9.140;2023-11-19T15:03:05;0.70;;;0.70;;
60847;SDS011;46681;47.696;9.140;2023-11-19T15:05:34;0.63;;;0.63;;
60847;SDS011;46681;47.696;9.140;2023-11-19T15:08:05;0.97;;;0.90;;
60847;SDS011;46681;47.696;9.140;2023-11-19T15:10:34;0.70;;;0.70;;
60847;SDS011;46681;47.696;9.140;2023-11-19T15:13:07;0.80;;;0.70;;
60847;SDS011;46681;47.696;9.140;2023-11-19T15:15:39;0.60;;;0.60;;
60847;SDS011;46681;47.696;9.140;2023-11-19T15:18:05;0.70;;;0.70;;
60847;SDS011;46681;47.696;9.140;2023-11-19T15:20:37;1.30;;;0.70;;